sensor_id;sensor_type;location;lat;lon;timestamp;P1;durP1;ratioP1;P2;durP2;ratioP2
11777;SDS011;5946;51.770;8.548;2022-09-09T00:01:29;6.27;;;1.93;;
11777;SDS011;5946;51.770;8.548;2022-09-09T00:03:57;4.37;;;1.60;;
11777;SDS011;5946;51.770;8.548;2022-09-09T00:06:30;7.63;;;1.90;;
11777;SDS011;5946;51.770;8.548;2022-09-09T00:08:59;4.63;;;1.63;;
11777;SDS011;5946;51.770;8.548;2022-09-09T00:11:28;5.63;;;1.73;;
11777;SDS011;5946;51.770;8.548;2022-09-09T00:13:56;3.60;;;1.77;;
11777;SDS011;5946;51.770;8.548;2022-09-09T00:16:27;4.43;;;2.07;;
11777;SDS011;5946;51.770;8.548;2022-09-09T00:21:33;3.13;;;1.80;;
11777;SDS011;5946;51.770;8.548;2022-09-09T00:23:59;4.50;;;1.63;;
11777;SDS011;5946;51.770;8.548;2022-09-09T00:26:30;2.93;;;1.53;;
11777;SDS011;5946;51.770;8.548;2022-09-09T00:29:05;4.63;;;1.80;;
11777;SDS011;5946;51.770;8.548;2022-09-09T00:31:35;4.67;;;1.70;;
11777;SDS011;5946;51.770;8.548;2022-09-09T00:34:14;3.27;;;1.43;;
11777;SDS011;5946;51.770;8.548;2022-09-09T00:36:42;2.87;;;1.47;;
11777;SDS011;5946;51.770;8.548;2022-09-09T00:39:23;5.53;;;1.57;;
11777;SDS011;5946;51.770;8.548;2022-09-09T00:41:56;3.47;;;1.70;;
11777;SDS011;5946;51.770;8.548;2022-09-09T00:44:30;5.53;;;1.80;;
11777;SDS011;5946;51.770;8.548;2022-09-09T00:49:35;7.10;;;1.40;;
11777;SDS011;5946;51.770;8.548;2022-09-09T00:52:13;3.83;;;1.60;;
11777;SDS011;5946;51.770;8.548;2022-09-09T00:59:57;3.10;;;1.17;;
11777;SDS011;5946;51.770;8.548;2022-09-09T01:02:28;3.50;;;1.60;;
11777;SDS011;5946;51.770;8.548;2022-09-09T01:04:54;5.10;;;1.70;;
11777;SDS011;5946;51.770;8.548;2022-09-09T01:07:20;5.23;;;1.43;;
11777;SDS011;5946;51.770;8.548;2022-09-09T01:09:50;4.03;;;1.60;;
11777;SDS011;5946;51.770;8.548;2022-09-09T01:12:23;8.93;;;2.00;;
11777;SDS011;5946;51.770;8.548;2022-09-09T01:15:24;5.67;;;1.90;;
11777;SDS011;5946;51.770;8.548;2022-09-09T01:17:53;3.10;;;1.57;;
11777;SDS011;5946;51.770;8.548;2022-09-09T01:28:18;6.70;;;1.77;;
11777;SDS011;5946;51.770;8.548;2022-09-09T01:30:46;5.27;;;1.60;;
11777;SDS011;5946;51.770;8.548;2022-09-09T01:33:16;2.93;;;1.47;;
11777;SDS011;5946;51.770;8.548;2022-09-09T01:35:55;3.57;;;1.53;;
11777;SDS011;5946;51.770;8.548;2022-09-09T01:38:23;3.73;;;1.57;;
11777;SDS011;5946;51.770;8.548;2022-09-09T01:40:50;4.90;;;1.73;;
11777;SDS011;5946;51.770;8.548;2022-09-09T01:43:21;8.30;;;1.90;;
11777;SDS011;5946;51.770;8.548;2022-09-09T01:45:48;4.10;;;1.80;;
11777;SDS011;5946;51.770;8.548;2022-09-09T01:48:15;5.40;;;1.60;;
11777;SDS011;5946;51.770;8.548;2022-09-09T01:50:42;4.50;;;1.80;;
11777;SDS011;5946;51.770;8.548;2022-09-09T01:53:08;4.03;;;1.93;;
11777;SDS011;5946;51.770;8.548;2022-09-09T01:55:38;5.23;;;1.97;;
11777;SDS011;5946;51.770;8.548;2022-09-09T02:00:33;3.70;;;1.60;;
11777;SDS011;5946;51.770;8.548;2022-09-09T02:03:21;3.53;;;1.70;;
11777;SDS011;5946;51.770;8.548;2022-09-09T02:06:08;4.93;;;2.13;;
11777;SDS011;5946;51.770;8.548;2022-09-09T02:08:40;4.17;;;1.90;;
11777;SDS011;5946;51.770;8.548;2022-09-09T02:11:15;4.73;;;1.63;;
11777;SDS011;5946;51.770;8.548;2022-09-09T02:13:42;2.70;;;1.70;;
11777;SDS011;5946;51.770;8.548;2022-09-09T02:16:20;7.23;;;2.00;;
11777;SDS011;5946;51.770;8.548;2022-09-09T02:18:51;3.23;;;1.73;;
11777;SDS011;5946;51.770;8.548;2022-09-09T02:21:18;3.87;;;2.00;;
11777;SDS011;5946;51.770;8.548;2022-09-09T02:23:44;7.10;;;2.00;;
11777;SDS011;5946;51.770;8.548;2022-09-09T02:26:12;5.43;;;1.90;;
11777;SDS011;5946;51.770;8.548;2022-09-09T02:28:44;4.10;;;1.83;;
11777;SDS011;5946;51.770;8.548;2022-09-09T02:31:10;4.27;;;1.77;;
11777;SDS011;5946;51.770;8.548;2022-09-09T02:33:38;3.60;;;1.60;;
11777;SDS011;5946;51.770;8.548;2022-09-09T02:36:05;2.03;;;1.30;;
11777;SDS011;5946;51.770;8.548;2022-09-09T02:38:34;3.00;;;1.40;;
11777;SDS011;5946;51.770;8.548;2022-09-09T02:41:02;1.70;;;1.30;;
11777;SDS011;5946;51.770;8.548;2022-09-09T02:43:35;4.93;;;1.70;;
11777;SDS011;5946;51.770;8.548;2022-09-09T02:48:59;4.53;;;1.60;;
11777;SDS011;5946;51.770;8.548;2022-09-09T02:51:32;5.60;;;1.50;;
11777;SDS011;5946;51.770;8.548;2022-09-09T02:56:29;4.53;;;1.33;;
11777;SDS011;5946;51.770;8.548;2022-09-09T02:58:55;6.03;;;1.67;;
11777;SDS011;5946;51.770;8.548;2022-09-09T03:01:21;5.83;;;1.60;;
11777;SDS011;5946;51.770;8.548;2022-09-09T03:03:47;4.50;;;1.60;;
11777;SDS011;5946;51.770;8.548;2022-09-09T03:06:13;5.67;;;1.40;;
11777;SDS011;5946;51.770;8.548;2022-09-09T03:08:39;3.87;;;1.57;;
11777;SDS011;5946;51.770;8.548;2022-09-09T03:11:07;4.27;;;1.50;;
11777;SDS011;5946;51.770;8.548;2022-09-09T03:13:34;7.10;;;1.40;;
11777;SDS011;5946;51.770;8.548;2022-09-09T03:16:00;3.63;;;1.57;;
11777;SDS011;5946;51.770;8.548;2022-09-09T03:18:26;4.40;;;1.70;;
11777;SDS011;5946;51.770;8.548;2022-09-09T03:20:53;3.37;;;1.33;;
11777;SDS011;5946;51.770;8.548;2022-09-09T03:23:19;5.37;;;1.60;;
11777;SDS011;5946;51.770;8.548;2022-09-09T03:25:47;2.33;;;1.47;;
11777;SDS011;5946;51.770;8.548;2022-09-09T03:28:13;5.20;;;1.50;;
11777;SDS011;5946;51.770;8.548;2022-09-09T03:30:40;5.23;;;1.63;;
11777;SDS011;5946;51.770;8.548;2022-09-09T03:33:06;9.43;;;1.60;;
11777;SDS011;5946;51.770;8.548;2022-09-09T03:35:32;4.23;;;1.40;;
11777;SDS011;5946;51.770;8.548;2022-09-09T03:37:58;4.63;;;1.50;;
11777;SDS011;5946;51.770;8.548;2022-09-09T03:40:25;4.57;;;1.50;;
11777;SDS011;5946;51.770;8.548;2022-09-09T03:42:51;3.80;;;1.60;;
11777;SDS011;5946;51.770;8.548;2022-09-09T03:45:17;6.70;;;1.80;;
11777;SDS011;5946;51.770;8.548;2022-09-09T03:47:43;4.30;;;1.53;;
11777;SDS011;5946;51.770;8.548;2022-09-09T03:50:09;4.60;;;1.70;;
11777;SDS011;5946;51.770;8.548;2022-09-09T03:52:36;2.80;;;1.70;;
11777;SDS011;5946;51.770;8.548;2022-09-09T03:55:03;3.07;;;1.47;;
11777;SDS011;5946;51.770;8.548;2022-09-09T03:57:29;5.17;;;1.67;;
11777;SDS011;5946;51.770;8.548;2022-09-09T03:59:55;5.07;;;1.33;;
11777;SDS011;5946;51.770;8.548;2022-09-09T04:02:21;5.50;;;1.53;;
11777;SDS011;5946;51.770;8.548;2022-09-09T04:04:47;5.80;;;1.90;;
11777;SDS011;5946;51.770;8.548;2022-09-09T04:07:13;4.57;;;1.70;;
11777;SDS011;5946;51.770;8.548;2022-09-09T04:09:39;4.70;;;1.73;;
11777;SDS011;5946;51.770;8.548;2022-09-09T04:12:05;8.80;;;2.30;;
11777;SDS011;5946;51.770;8.548;2022-09-09T04:14:31;6.70;;;2.23;;
11777;SDS011;5946;51.770;8.548;2022-09-09T04:16:57;9.03;;;2.13;;
11777;SDS011;5946;51.770;8.548;2022-09-09T04:19:24;5.03;;;2.00;;
11777;SDS011;5946;51.770;8.548;2022-09-09T04:21:50;6.77;;;2.73;;
11777;SDS011;5946;51.770;8.548;2022-09-09T04:24:16;8.87;;;2.50;;
11777;SDS011;5946;51.770;8.548;2022-09-09T04:26:42;10.37;;;2.63;;
11777;SDS011;5946;51.770;8.548;2022-09-09T04:29:08;5.17;;;2.40;;
11777;SDS011;5946;51.770;8.548;2022-09-09T04:31:34;7.33;;;2.90;;
11777;SDS011;5946;51.770;8.548;2022-09-09T04:34:00;8.07;;;2.80;;
11777;SDS011;5946;51.770;8.548;2022-09-09T04:36:30;7.23;;;2.90;;
11777;SDS011;5946;51.770;8.548;2022-09-09T04:38:56;4.90;;;2.60;;
11777;SDS011;5946;51.770;8.548;2022-09-09T04:41:22;7.80;;;3.23;;
11777;SDS011;5946;51.770;8.548;2022-09-09T04:43:48;9.47;;;3.30;;
11777;SDS011;5946;51.770;8.548;2022-09-09T04:46:14;9.50;;;3.33;;
11777;SDS011;5946;51.770;8.548;2022-09-09T04:48:43;9.73;;;3.40;;
11777;SDS011;5946;51.770;8.548;2022-09-09T04:51:11;5.20;;;2.93;;
11777;SDS011;5946;51.770;8.548;2022-09-09T04:53:37;7.23;;;3.30;;
11777;SDS011;5946;51.770;8.548;2022-09-09T04:56:04;5.80;;;2.60;;
11777;SDS011;5946;51.770;8.548;2022-09-09T04:58:30;5.93;;;3.10;;
11777;SDS011;5946;51.770;8.548;2022-09-09T05:03:35;5.40;;;2.83;;
11777;SDS011;5946;51.770;8.548;2022-09-09T05:08:30;7.97;;;3.20;;
11777;SDS011;5946;51.770;8.548;2022-09-09T05:10:56;9.27;;;3.23;;
11777;SDS011;5946;51.770;8.548;2022-09-09T05:13:24;9.43;;;3.73;;
11777;SDS011;5946;51.770;8.548;2022-09-09T05:15:53;9.07;;;3.67;;
11777;SDS011;5946;51.770;8.548;2022-09-09T05:18:20;10.97;;;3.50;;
11777;SDS011;5946;51.770;8.548;2022-09-09T05:20:47;7.50;;;3.73;;
11777;SDS011;5946;51.770;8.548;2022-09-09T05:23:13;8.73;;;3.80;;
11777;SDS011;5946;51.770;8.548;2022-09-09T05:25:39;10.50;;;3.90;;
11777;SDS011;5946;51.770;8.548;2022-09-09T05:28:06;12.40;;;3.70;;
11777;SDS011;5946;51.770;8.548;2022-09-09T05:30:32;10.27;;;4.30;;
11777;SDS011;5946;51.770;8.548;2022-09-09T05:32:58;8.90;;;3.37;;
11777;SDS011;5946;51.770;8.548;2022-09-09T05:35:24;8.40;;;3.50;;
11777;SDS011;5946;51.770;8.548;2022-09-09T05:37:50;9.43;;;3.77;;
11777;SDS011;5946;51.770;8.548;2022-09-09T05:40:16;11.60;;;3.63;;
11777;SDS011;5946;51.770;8.548;2022-09-09T05:42:43;9.40;;;3.00;;
11777;SDS011;5946;51.770;8.548;2022-09-09T05:45:09;7.40;;;3.10;;
11777;SDS011;5946;51.770;8.548;2022-09-09T05:47:35;6.90;;;2.80;;
11777;SDS011;5946;51.770;8.548;2022-09-09T05:50:02;6.27;;;2.77;;
11777;SDS011;5946;51.770;8.548;2022-09-09T05:52:28;6.90;;;2.60;;
11777;SDS011;5946;51.770;8.548;2022-09-09T05:54:54;5.80;;;2.60;;
11777;SDS011;5946;51.770;8.548;2022-09-09T05:57:21;4.90;;;2.10;;
11777;SDS011;5946;51.770;8.548;2022-09-09T05:59:47;5.47;;;2.47;;
11777;SDS011;5946;51.770;8.548;2022-09-09T06:02:14;7.00;;;2.00;;
11777;SDS011;5946;51.770;8.548;2022-09-09T06:04:41;3.93;;;1.80;;
11777;SDS011;5946;51.770;8.548;2022-09-09T06:07:07;4.80;;;1.90;;
11777;SDS011;5946;51.770;8.548;2022-09-09T06:09:33;7.63;;;2.20;;
11777;SDS011;5946;51.770;8.548;2022-09-09T06:11:59;6.17;;;2.00;;
11777;SDS011;5946;51.770;8.548;2022-09-09T06:14:25;5.03;;;1.80;;
11777;SDS011;5946;51.770;8.548;2022-09-09T06:16:52;4.97;;;2.00;;
11777;SDS011;5946;51.770;8.548;2022-09-09T06:19:18;5.77;;;1.90;;
11777;SDS011;5946;51.770;8.548;2022-09-09T06:21:45;4.40;;;1.90;;
11777;SDS011;5946;51.770;8.548;2022-09-09T06:24:12;4.53;;;2.10;;
11777;SDS011;5946;51.770;8.548;2022-09-09T06:26:42;3.90;;;1.70;;
11777;SDS011;5946;51.770;8.548;2022-09-09T06:29:08;7.03;;;1.93;;
11777;SDS011;5946;51.770;8.548;2022-09-09T06:31:34;6.47;;;2.07;;
11777;SDS011;5946;51.770;8.548;2022-09-09T06:34:02;9.43;;;2.10;;
11777;SDS011;5946;51.770;8.548;2022-09-09T06:36:30;6.60;;;1.90;;
11777;SDS011;5946;51.770;8.548;2022-09-09T06:38:56;4.80;;;1.80;;
11777;SDS011;5946;51.770;8.548;2022-09-09T06:41:23;3.33;;;1.53;;
11777;SDS011;5946;51.770;8.548;2022-09-09T06:43:51;4.33;;;1.97;;
11777;SDS011;5946;51.770;8.548;2022-09-09T06:46:18;4.37;;;1.70;;
11777;SDS011;5946;51.770;8.548;2022-09-09T06:48:44;3.97;;;1.70;;
11777;SDS011;5946;51.770;8.548;2022-09-09T06:53:38;6.83;;;1.90;;
11777;SDS011;5946;51.770;8.548;2022-09-09T06:58:36;8.33;;;1.73;;
11777;SDS011;5946;51.770;8.548;2022-09-09T07:01:03;8.80;;;1.70;;
11777;SDS011;5946;51.770;8.548;2022-09-09T07:03:29;5.37;;;1.70;;
11777;SDS011;5946;51.770;8.548;2022-09-09T07:05:55;5.70;;;1.73;;
11777;SDS011;5946;51.770;8.548;2022-09-09T07:08:22;6.37;;;1.67;;
11777;SDS011;5946;51.770;8.548;2022-09-09T07:10:48;6.50;;;1.70;;
11777;SDS011;5946;51.770;8.548;2022-09-09T07:13:14;8.27;;;2.27;;
11777;SDS011;5946;51.770;8.548;2022-09-09T07:15:40;7.77;;;1.60;;
11777;SDS011;5946;51.770;8.548;2022-09-09T07:18:06;8.33;;;2.00;;
11777;SDS011;5946;51.770;8.548;2022-09-09T07:20:34;4.87;;;1.77;;
11777;SDS011;5946;51.770;8.548;2022-09-09T07:23:00;6.17;;;1.53;;
11777;SDS011;5946;51.770;8.548;2022-09-09T07:25:26;4.43;;;1.30;;
11777;SDS011;5946;51.770;8.548;2022-09-09T07:27:54;3.80;;;1.53;;
11777;SDS011;5946;51.770;8.548;2022-09-09T07:30:21;5.73;;;1.73;;
11777;SDS011;5946;51.770;8.548;2022-09-09T07:32:47;6.93;;;2.00;;
11777;SDS011;5946;51.770;8.548;2022-09-09T07:35:13;5.37;;;1.43;;
11777;SDS011;5946;51.770;8.548;2022-09-09T07:37:39;3.47;;;1.37;;
11777;SDS011;5946;51.770;8.548;2022-09-09T07:40:06;4.20;;;1.40;;
11777;SDS011;5946;51.770;8.548;2022-09-09T07:42:32;3.20;;;1.40;;
11777;SDS011;5946;51.770;8.548;2022-09-09T07:44:58;2.40;;;1.17;;
11777;SDS011;5946;51.770;8.548;2022-09-09T07:47:24;5.03;;;1.70;;
11777;SDS011;5946;51.770;8.548;2022-09-09T07:49:50;3.33;;;1.40;;
11777;SDS011;5946;51.770;8.548;2022-09-09T07:52:16;4.40;;;1.07;;
11777;SDS011;5946;51.770;8.548;2022-09-09T07:54:42;3.83;;;1.40;;
11777;SDS011;5946;51.770;8.548;2022-09-09T07:57:10;3.07;;;1.20;;
11777;SDS011;5946;51.770;8.548;2022-09-09T07:59:37;3.87;;;1.40;;
11777;SDS011;5946;51.770;8.548;2022-09-09T08:02:03;3.30;;;1.10;;
11777;SDS011;5946;51.770;8.548;2022-09-09T08:04:29;2.33;;;1.30;;
11777;SDS011;5946;51.770;8.548;2022-09-09T08:06:56;3.40;;;1.23;;
11777;SDS011;5946;51.770;8.548;2022-09-09T08:09:22;3.83;;;1.10;;
11777;SDS011;5946;51.770;8.548;2022-09-09T08:11:54;4.50;;;1.30;;
11777;SDS011;5946;51.770;8.548;2022-09-09T08:14:21;2.93;;;1.20;;
11777;SDS011;5946;51.770;8.548;2022-09-09T08:16:48;4.13;;;0.97;;
11777;SDS011;5946;51.770;8.548;2022-09-09T08:19:14;2.27;;;0.97;;
11777;SDS011;5946;51.770;8.548;2022-09-09T08:21:40;5.13;;;1.10;;
11777;SDS011;5946;51.770;8.548;2022-09-09T08:24:07;7.03;;;1.20;;
11777;SDS011;5946;51.770;8.548;2022-09-09T08:26:36;2.37;;;1.00;;
11777;SDS011;5946;51.770;8.548;2022-09-09T08:29:03;4.57;;;1.20;;
11777;SDS011;5946;51.770;8.548;2022-09-09T08:31:33;4.93;;;1.33;;
11777;SDS011;5946;51.770;8.548;2022-09-09T08:33:59;4.43;;;1.07;;
11777;SDS011;5946;51.770;8.548;2022-09-09T08:36:28;8.30;;;1.10;;
11777;SDS011;5946;51.770;8.548;2022-09-09T08:38:55;2.80;;;1.07;;
11777;SDS011;5946;51.770;8.548;2022-09-09T08:44:14;4.63;;;1.10;;
11777;SDS011;5946;51.770;8.548;2022-09-09T08:49:31;1.87;;;0.93;;
11777;SDS011;5946;51.770;8.548;2022-09-09T08:52:02;5.07;;;1.27;;
11777;SDS011;5946;51.770;8.548;2022-09-09T08:54:32;2.10;;;1.10;;
11777;SDS011;5946;51.770;8.548;2022-09-09T08:56:59;2.93;;;1.03;;
11777;SDS011;5946;51.770;8.548;2022-09-09T08:59:26;6.80;;;1.70;;
11777;SDS011;5946;51.770;8.548;2022-09-09T09:12:29;4.22;;;1.35;;
11777;SDS011;5946;51.770;8.548;2022-09-09T09:14:58;5.50;;;1.60;;
11777;SDS011;5946;51.770;8.548;2022-09-09T09:17:25;6.07;;;1.48;;
11777;SDS011;5946;51.770;8.548;2022-09-09T09:19:52;6.27;;;1.20;;
11777;SDS011;5946;51.770;8.548;2022-09-09T09:24:55;5.97;;;1.40;;
11777;SDS011;5946;51.770;8.548;2022-09-09T09:27:25;6.00;;;1.38;;
11777;SDS011;5946;51.770;8.548;2022-09-09T09:29:54;4.95;;;1.30;;
11777;SDS011;5946;51.770;8.548;2022-09-09T09:32:21;5.65;;;1.50;;
11777;SDS011;5946;51.770;8.548;2022-09-09T09:34:51;3.17;;;1.10;;
11777;SDS011;5946;51.770;8.548;2022-09-09T09:37:17;5.78;;;1.20;;
11777;SDS011;5946;51.770;8.548;2022-09-09T09:39:46;5.77;;;1.50;;
11777;SDS011;5946;51.770;8.548;2022-09-09T09:42:14;2.77;;;1.10;;
11777;SDS011;5946;51.770;8.548;2022-09-09T09:44:42;4.30;;;1.23;;
11777;SDS011;5946;51.770;8.548;2022-09-09T09:47:10;4.63;;;1.20;;
11777;SDS011;5946;51.770;8.548;2022-09-09T09:49:37;4.83;;;1.50;;
11777;SDS011;5946;51.770;8.548;2022-09-09T09:52:04;4.57;;;1.50;;
11777;SDS011;5946;51.770;8.548;2022-09-09T09:54:32;10.40;;;1.60;;
11777;SDS011;5946;51.770;8.548;2022-09-09T09:57:12;7.10;;;1.33;;
11777;SDS011;5946;51.770;8.548;2022-09-09T09:59:39;3.63;;;1.13;;
11777;SDS011;5946;51.770;8.548;2022-09-09T10:02:11;5.37;;;1.40;;
11777;SDS011;5946;51.770;8.548;2022-09-09T10:04:39;6.33;;;1.43;;
11777;SDS011;5946;51.770;8.548;2022-09-09T10:07:24;4.40;;;1.30;;
11777;SDS011;5946;51.770;8.548;2022-09-09T10:09:54;4.77;;;1.30;;
11777;SDS011;5946;51.770;8.548;2022-09-09T10:12:28;4.40;;;1.30;;
11777;SDS011;5946;51.770;8.548;2022-09-09T10:17:34;5.67;;;1.57;;
11777;SDS011;5946;51.770;8.548;2022-09-09T10:22:34;3.73;;;1.13;;
11777;SDS011;5946;51.770;8.548;2022-09-09T10:27:41;8.63;;;1.70;;
11777;SDS011;5946;51.770;8.548;2022-09-09T10:30:16;6.37;;;1.50;;
11777;SDS011;5946;51.770;8.548;2022-09-09T10:35:27;3.27;;;1.30;;
11777;SDS011;5946;51.770;8.548;2022-09-09T10:45:41;2.27;;;1.20;;
11777;SDS011;5946;51.770;8.548;2022-09-09T10:50:54;5.03;;;1.60;;
11777;SDS011;5946;51.770;8.548;2022-09-09T10:55:51;3.53;;;1.03;;
11777;SDS011;5946;51.770;8.548;2022-09-09T10:58:24;3.38;;;1.50;;
11777;SDS011;5946;51.770;8.548;2022-09-09T11:00:52;4.37;;;1.27;;
11777;SDS011;5946;51.770;8.548;2022-09-09T11:03:20;3.40;;;1.40;;
11777;SDS011;5946;51.770;8.548;2022-09-09T11:05:57;3.10;;;1.07;;
11777;SDS011;5946;51.770;8.548;2022-09-09T11:08:26;4.63;;;1.40;;
11777;SDS011;5946;51.770;8.548;2022-09-09T11:18:41;5.30;;;1.30;;
11777;SDS011;5946;51.770;8.548;2022-09-09T11:21:12;4.40;;;1.33;;
11777;SDS011;5946;51.770;8.548;2022-09-09T11:23:43;6.72;;;1.55;;
11777;SDS011;5946;51.770;8.548;2022-09-09T11:26:13;3.80;;;1.00;;
11777;SDS011;5946;51.770;8.548;2022-09-09T11:44:40;2.53;;;0.97;;
11777;SDS011;5946;51.770;8.548;2022-09-09T11:50:56;1.50;;;0.73;;
11777;SDS011;5946;51.770;8.548;2022-09-09T11:55:40;5.33;;;1.07;;
11777;SDS011;5946;51.770;8.548;2022-09-09T12:00:36;4.00;;;0.97;;
11777;SDS011;5946;51.770;8.548;2022-09-09T12:03:03;3.33;;;1.05;;
11777;SDS011;5946;51.770;8.548;2022-09-09T12:05:42;4.90;;;1.45;;
11777;SDS011;5946;51.770;8.548;2022-09-09T12:08:10;3.10;;;1.25;;
11777;SDS011;5946;51.770;8.548;2022-09-09T12:10:40;4.95;;;1.20;;
11777;SDS011;5946;51.770;8.548;2022-09-09T12:13:22;4.07;;;1.00;;
11777;SDS011;5946;51.770;8.548;2022-09-09T12:15:52;3.45;;;1.17;;
11777;SDS011;5946;51.770;8.548;2022-09-09T12:18:26;4.78;;;1.00;;
11777;SDS011;5946;51.770;8.548;2022-09-09T12:26:27;3.47;;;1.10;;
11777;SDS011;5946;51.770;8.548;2022-09-09T12:37:52;4.20;;;1.20;;
11777;SDS011;5946;51.770;8.548;2022-09-09T12:40:03;4.03;;;1.30;;
11777;SDS011;5946;51.770;8.548;2022-09-09T12:42:29;3.33;;;1.02;;
11777;SDS011;5946;51.770;8.548;2022-09-09T12:44:59;2.08;;;1.10;;
11777;SDS011;5946;51.770;8.548;2022-09-09T12:52:46;3.33;;;1.10;;
11777;SDS011;5946;51.770;8.548;2022-09-09T12:55:16;2.60;;;1.30;;
11777;SDS011;5946;51.770;8.548;2022-09-09T12:57:43;4.78;;;1.42;;
11777;SDS011;5946;51.770;8.548;2022-09-09T13:02:48;12.10;;;1.67;;
11777;SDS011;5946;51.770;8.548;2022-09-09T13:05:16;3.20;;;1.30;;
11777;SDS011;5946;51.770;8.548;2022-09-09T13:07:42;7.20;;;1.60;;
11777;SDS011;5946;51.770;8.548;2022-09-09T13:10:12;4.38;;;1.45;;
11777;SDS011;5946;51.770;8.548;2022-09-09T13:12:38;5.82;;;1.63;;
11777;SDS011;5946;51.770;8.548;2022-09-09T13:15:04;5.32;;;1.27;;
11777;SDS011;5946;51.770;8.548;2022-09-09T13:17:37;5.22;;;1.40;;
11777;SDS011;5946;51.770;8.548;2022-09-09T13:20:05;4.43;;;1.30;;
11777;SDS011;5946;51.770;8.548;2022-09-09T13:22:35;8.00;;;1.27;;
11777;SDS011;5946;51.770;8.548;2022-09-09T13:25:06;2.65;;;1.20;;
11777;SDS011;5946;51.770;8.548;2022-09-09T13:27:59;4.25;;;1.02;;
11777;SDS011;5946;51.770;8.548;2022-09-09T13:30:31;2.50;;;0.82;;
11777;SDS011;5946;51.770;8.548;2022-09-09T13:33:02;3.92;;;1.13;;
11777;SDS011;5946;51.770;8.548;2022-09-09T13:35:28;3.80;;;0.98;;
11777;SDS011;5946;51.770;8.548;2022-09-09T13:37:55;7.00;;;1.15;;
11777;SDS011;5946;51.770;8.548;2022-09-09T13:40:21;3.63;;;1.20;;
11777;SDS011;5946;51.770;8.548;2022-09-09T13:42:50;1.92;;;0.70;;
11777;SDS011;5946;51.770;8.548;2022-09-09T13:45:18;2.97;;;0.82;;
11777;SDS011;5946;51.770;8.548;2022-09-09T13:47:48;1.38;;;0.80;;
11777;SDS011;5946;51.770;8.548;2022-09-09T13:52:59;3.67;;;0.98;;
11777;SDS011;5946;51.770;8.548;2022-09-09T13:55:26;2.28;;;0.88;;
11777;SDS011;5946;51.770;8.548;2022-09-09T13:57:56;3.88;;;0.77;;
11777;SDS011;5946;51.770;8.548;2022-09-09T14:00:22;3.22;;;0.63;;
11777;SDS011;5946;51.770;8.548;2022-09-09T14:02:49;2.30;;;0.80;;
11777;SDS011;5946;51.770;8.548;2022-09-09T14:05:15;2.60;;;0.90;;
11777;SDS011;5946;51.770;8.548;2022-09-09T14:07:42;2.08;;;0.70;;
11777;SDS011;5946;51.770;8.548;2022-09-09T14:10:08;2.83;;;0.80;;
11777;SDS011;5946;51.770;8.548;2022-09-09T14:12:34;5.93;;;1.00;;
11777;SDS011;5946;51.770;8.548;2022-09-09T14:15:01;4.28;;;0.98;;
11777;SDS011;5946;51.770;8.548;2022-09-09T14:17:27;2.95;;;0.82;;
11777;SDS011;5946;51.770;8.548;2022-09-09T14:19:55;1.83;;;0.80;;
11777;SDS011;5946;51.770;8.548;2022-09-09T14:22:21;2.63;;;0.80;;
11777;SDS011;5946;51.770;8.548;2022-09-09T14:24:48;2.30;;;0.80;;
11777;SDS011;5946;51.770;8.548;2022-09-09T14:27:14;1.55;;;1.00;;
11777;SDS011;5946;51.770;8.548;2022-09-09T14:29:40;1.83;;;0.80;;
11777;SDS011;5946;51.770;8.548;2022-09-09T14:32:06;4.85;;;1.10;;
11777;SDS011;5946;51.770;8.548;2022-09-09T14:34:32;8.50;;;1.00;;
11777;SDS011;5946;51.770;8.548;2022-09-09T14:36:58;3.95;;;0.95;;
11777;SDS011;5946;51.770;8.548;2022-09-09T14:39:24;4.43;;;1.20;;
11777;SDS011;5946;51.770;8.548;2022-09-09T14:41:50;2.03;;;0.80;;
11777;SDS011;5946;51.770;8.548;2022-09-09T14:44:16;4.20;;;1.17;;
11777;SDS011;5946;51.770;8.548;2022-09-09T14:46:42;1.95;;;0.73;;
11777;SDS011;5946;51.770;8.548;2022-09-09T14:49:08;2.47;;;0.90;;
11777;SDS011;5946;51.770;8.548;2022-09-09T14:51:35;3.55;;;1.00;;
11777;SDS011;5946;51.770;8.548;2022-09-09T14:54:01;3.55;;;0.90;;
11777;SDS011;5946;51.770;8.548;2022-09-09T14:56:28;2.13;;;0.90;;
11777;SDS011;5946;51.770;8.548;2022-09-09T14:58:54;1.75;;;0.77;;
11777;SDS011;5946;51.770;8.548;2022-09-09T15:01:21;3.85;;;0.80;;
11777;SDS011;5946;51.770;8.548;2022-09-09T15:03:51;5.22;;;1.00;;
11777;SDS011;5946;51.770;8.548;2022-09-09T15:06:18;2.50;;;1.00;;
11777;SDS011;5946;51.770;8.548;2022-09-09T15:08:45;3.53;;;0.88;;
11777;SDS011;5946;51.770;8.548;2022-09-09T15:11:12;2.75;;;0.98;;
11777;SDS011;5946;51.770;8.548;2022-09-09T15:13:39;4.50;;;1.42;;
11777;SDS011;5946;51.770;8.548;2022-09-09T15:18:31;5.00;;;1.00;;
11777;SDS011;5946;51.770;8.548;2022-09-09T15:20:58;2.67;;;1.02;;
11777;SDS011;5946;51.770;8.548;2022-09-09T15:23:25;4.85;;;1.40;;
11777;SDS011;5946;51.770;8.548;2022-09-09T15:25:54;1.23;;;0.60;;
11777;SDS011;5946;51.770;8.548;2022-09-09T15:28:21;3.10;;;1.13;;
11777;SDS011;5946;51.770;8.548;2022-09-09T15:30:51;4.88;;;1.00;;
11777;SDS011;5946;51.770;8.548;2022-09-09T15:33:18;2.70;;;1.00;;
11777;SDS011;5946;51.770;8.548;2022-09-09T15:35:44;4.22;;;1.08;;
11777;SDS011;5946;51.770;8.548;2022-09-09T15:38:10;8.57;;;2.10;;
11777;SDS011;5946;51.770;8.548;2022-09-09T15:40:37;15.35;;;3.70;;
11777;SDS011;5946;51.770;8.548;2022-09-09T15:43:04;7.90;;;2.70;;
11777;SDS011;5946;51.770;8.548;2022-09-09T15:45:31;10.73;;;2.47;;
11777;SDS011;5946;51.770;8.548;2022-09-09T15:47:58;9.80;;;2.87;;
11777;SDS011;5946;51.770;8.548;2022-09-09T15:50:24;9.13;;;2.30;;
11777;SDS011;5946;51.770;8.548;2022-09-09T15:52:50;12.23;;;3.13;;
11777;SDS011;5946;51.770;8.548;2022-09-09T15:55:17;6.63;;;2.40;;
11777;SDS011;5946;51.770;8.548;2022-09-09T15:57:44;6.13;;;1.80;;
11777;SDS011;5946;51.770;8.548;2022-09-09T16:00:10;4.97;;;1.80;;
11777;SDS011;5946;51.770;8.548;2022-09-09T16:02:37;6.43;;;1.90;;
11777;SDS011;5946;51.770;8.548;2022-09-09T16:05:04;4.27;;;1.93;;
11777;SDS011;5946;51.770;8.548;2022-09-09T16:07:30;4.63;;;1.70;;
11777;SDS011;5946;51.770;8.548;2022-09-09T16:09:56;4.70;;;1.70;;
11777;SDS011;5946;51.770;8.548;2022-09-09T16:12:22;5.70;;;1.47;;
11777;SDS011;5946;51.770;8.548;2022-09-09T16:14:47;4.10;;;1.43;;
11777;SDS011;5946;51.770;8.548;2022-09-09T16:17:14;4.10;;;1.47;;
11777;SDS011;5946;51.770;8.548;2022-09-09T16:19:40;3.60;;;1.23;;
11777;SDS011;5946;51.770;8.548;2022-09-09T16:22:06;3.67;;;1.37;;
11777;SDS011;5946;51.770;8.548;2022-09-09T16:24:33;2.37;;;1.50;;
11777;SDS011;5946;51.770;8.548;2022-09-09T16:26:59;4.50;;;1.90;;
11777;SDS011;5946;51.770;8.548;2022-09-09T16:29:25;4.57;;;1.80;;
11777;SDS011;5946;51.770;8.548;2022-09-09T16:31:52;4.57;;;1.90;;
11777;SDS011;5946;51.770;8.548;2022-09-09T16:34:18;3.23;;;2.03;;
11777;SDS011;5946;51.770;8.548;2022-09-09T16:36:44;5.07;;;2.20;;
11777;SDS011;5946;51.770;8.548;2022-09-09T16:39:12;10.73;;;3.37;;
11777;SDS011;5946;51.770;8.548;2022-09-09T16:41:38;8.17;;;2.80;;
11777;SDS011;5946;51.770;8.548;2022-09-09T16:44:06;9.17;;;2.73;;
11777;SDS011;5946;51.770;8.548;2022-09-09T16:46:36;7.60;;;3.20;;
11777;SDS011;5946;51.770;8.548;2022-09-09T16:49:04;6.23;;;2.67;;
11777;SDS011;5946;51.770;8.548;2022-09-09T16:51:31;8.23;;;3.00;;
11777;SDS011;5946;51.770;8.548;2022-09-09T16:53:57;8.17;;;3.10;;
11777;SDS011;5946;51.770;8.548;2022-09-09T16:56:24;7.07;;;3.43;;
11777;SDS011;5946;51.770;8.548;2022-09-09T16:58:52;6.53;;;3.20;;
11777;SDS011;5946;51.770;8.548;2022-09-09T17:01:20;6.57;;;3.40;;
11777;SDS011;5946;51.770;8.548;2022-09-09T17:03:46;5.50;;;3.50;;
11777;SDS011;5946;51.770;8.548;2022-09-09T17:06:12;5.43;;;3.60;;
11777;SDS011;5946;51.770;8.548;2022-09-09T17:08:39;9.90;;;4.10;;
11777;SDS011;5946;51.770;8.548;2022-09-09T17:11:16;8.20;;;3.50;;
11777;SDS011;5946;51.770;8.548;2022-09-09T17:13:43;7.73;;;4.00;;
11777;SDS011;5946;51.770;8.548;2022-09-09T17:16:09;8.70;;;3.80;;
11777;SDS011;5946;51.770;8.548;2022-09-09T17:18:36;10.87;;;4.53;;
11777;SDS011;5946;51.770;8.548;2022-09-09T17:21:05;8.30;;;4.67;;
11777;SDS011;5946;51.770;8.548;2022-09-09T17:23:33;9.47;;;5.07;;